Главная страница
METAR-TAF:

METAR-TAF

Аэропорты :

Борнхольм

Рённе, Дания

широта: 55-04N, долгота: 014-45E, высота над уровнем моря: 16 м

Текущие метеонаблюдения

Эта сводка был подготовлена 6 минут назад, в 11:20 UTC
Ветер 4 Узел от южный, изменяющийся между юго-юго-восточный и юго-западный
Температура 26°C
Влажность 61%
Давление 1019 hPa
Видимость 10 км и более

METAR: EKRN 091120Z AUTO 19004KT 150V220 9999 NCD 26/18 Q1019

Время: 13:26 (11:26 UTC)

Прогноз

Эта сводка был подготовлена 3 часа и 2 минут назад, в 08:24 UTC
Прогноз действительный с 09-го 09 UTC до 09-го 18 UTC
Ветер 5 Узел от южный-юго-западный
Видимость 10 км и более
Нет облачности ниже 1500 м, и нет кучево-дождевой облачности

TAF: EKRN 090824Z 0909/0918 20005KT CAVOK

Метеонаблюдения и прогнозы для более 4000 аэропортов (сводки METAR и TAF).

Имеющиеся станции представлены на карте желтыми и красными точками.

Чтобы увидеть название станции, наведите на нее мышь.

Затем щелкните, чтобы увидеть метеонаблюдения и метеопрогнозы.

Управление картой: чтобы увеличить масштаб, щелкните зеленые кнопки с черным крестиком; чтобы уменьшить масштаб, щелкните зеленую кнопку с тире; для просмотра соседних карт щелкайте зеленые стрелки.


METAR-TAF: